createdAt,value
2023-05-13T00:03:08.718Z,5.26
2023-05-13T00:08:12.077Z,5.22
2023-05-13T00:13:14.835Z,5.14
2023-05-13T00:18:17.713Z,5.06
2023-05-13T00:23:20.566Z,4.98
2023-05-13T00:28:23.374Z,4.95
2023-05-13T00:33:26.491Z,4.95
2023-05-13T00:38:29.311Z,4.94
2023-05-13T00:43:32.252Z,4.89
2023-05-13T00:48:35.099Z,4.79
2023-05-13T00:53:39.348Z,4.69
2023-05-13T00:58:42.198Z,4.58
2023-05-13T01:04:00.912Z,4.53
2023-05-13T01:09:24.889Z,4.51
2023-05-13T01:14:34.245Z,4.47
2023-05-13T01:20:10.066Z,4.41
2023-05-13T01:25:12.955Z,4.30
2023-05-13T01:30:16.404Z,4.24
2023-05-13T01:35:20.692Z,4.24
2023-05-13T01:40:32.523Z,4.20
2023-05-13T01:45:36.253Z,4.15
2023-05-13T01:50:39.129Z,4.08
2023-05-13T01:55:42.091Z,4.04
2023-05-13T02:00:44.930Z,4.00
2023-05-13T02:05:48.984Z,3.93
2023-05-13T02:10:59.187Z,3.86
2023-05-13T02:16:02.004Z,3.78
2023-05-13T02:21:04.870Z,3.73
2023-05-13T02:26:07.665Z,3.72
2023-05-13T02:31:10.602Z,3.68
2023-05-13T02:36:13.440Z,3.63
2023-05-13T02:41:16.284Z,3.54
2023-05-13T02:46:19.087Z,3.51
2023-05-13T02:51:21.914Z,3.52
2023-05-13T02:56:24.734Z,3.53
2023-05-13T03:01:27.737Z,3.53
2023-05-13T03:06:31.775Z,3.53
2023-05-13T03:11:34.693Z,3.55
2023-05-13T03:16:37.699Z,3.61
2023-05-13T03:21:40.605Z,3.69
2023-05-13T03:26:43.505Z,3.75
2023-05-13T03:31:46.420Z,3.80
2023-05-13T03:36:49.312Z,3.91
2023-05-13T03:41:52.695Z,4.05
2023-05-13T03:46:55.458Z,4.18
2023-05-13T03:51:58.296Z,4.30
2023-05-13T03:57:01.413Z,4.43
2023-05-13T04:02:04.365Z,4.59
2023-05-13T04:07:07.241Z,4.82
2023-05-13T04:12:10.065Z,5.07
2023-05-13T04:17:12.941Z,5.35
2023-05-13T04:22:15.870Z,5.65
2023-05-13T04:27:18.760Z,5.92
2023-05-13T04:32:22.015Z,6.17
2023-05-13T04:37:25.662Z,6.43
2023-05-13T04:42:28.551Z,6.71
2023-05-13T04:47:35.272Z,7.06
2023-05-13T04:52:38.351Z,7.47
2023-05-13T04:57:41.306Z,7.88
2023-05-13T05:02:44.193Z,8.24
2023-05-13T05:07:47.075Z,8.58
2023-05-13T05:12:50.840Z,8.90
2023-05-13T05:17:53.958Z,9.22
2023-05-13T05:22:56.810Z,9.54
2023-05-13T05:27:59.678Z,9.88
2023-05-13T05:33:02.562Z,10.22
2023-05-13T05:38:06.967Z,10.56
2023-05-13T05:43:13.900Z,10.94
2023-05-13T05:48:17.346Z,11.33
2023-05-13T05:53:20.675Z,11.69
2023-05-13T05:58:23.729Z,12.07
2023-05-13T06:03:26.845Z,12.46
2023-05-13T06:08:31.117Z,12.84
2023-05-13T06:13:33.902Z,13.21
2023-05-13T06:18:36.700Z,13.58
2023-05-13T06:23:40.033Z,13.96
2023-05-13T06:28:42.853Z,14.36
2023-05-13T06:33:45.770Z,14.76
2023-05-13T06:38:48.523Z,15.18
2023-05-13T06:43:51.366Z,15.57
2023-05-13T06:48:56.800Z,15.95
2023-05-13T06:53:59.731Z,16.32
2023-05-13T06:59:02.604Z,16.69
2023-05-13T07:04:05.552Z,17.04
2023-05-13T07:09:11.292Z,17.35
2023-05-13T07:14:14.168Z,17.63
2023-05-13T07:19:17.193Z,17.93
2023-05-13T07:24:20.172Z,18.24
2023-05-13T07:29:23.012Z,18.61
2023-05-13T07:34:25.902Z,18.98
2023-05-13T07:39:28.800Z,19.27
2023-05-13T07:44:31.639Z,19.55
2023-05-13T07:49:34.426Z,19.67
2023-05-13T07:54:37.213Z,19.88
2023-05-13T07:59:40.083Z,20.20
2023-05-13T08:04:42.960Z,20.44
2023-05-13T08:09:45.846Z,20.59
2023-05-13T08:14:49.129Z,20.78
2023-05-13T08:19:52.010Z,20.92
2023-05-13T08:24:54.833Z,21.03
2023-05-13T08:29:57.755Z,21.06
2023-05-13T08:35:01.433Z,21.24
2023-05-13T08:40:04.932Z,21.47
2023-05-13T08:45:08.908Z,21.67
2023-05-13T08:50:12.823Z,21.87
2023-05-13T08:55:16.325Z,21.87
2023-05-13T09:00:21.441Z,21.84
2023-05-13T09:05:25.394Z,21.45
2023-05-13T09:10:28.608Z,21.57
2023-05-13T09:15:32.174Z,21.87
2023-05-13T09:20:35.679Z,22.44
2023-05-13T09:25:39.138Z,22.82
2023-05-13T09:30:45.667Z,23.12
2023-05-13T09:35:55.230Z,23.09
2023-05-13T09:41:00.104Z,22.74
2023-05-13T09:46:05.023Z,22.88
2023-05-13T09:51:09.115Z,23.08
2023-05-13T09:56:11.920Z,22.92
2023-05-13T10:01:14.886Z,22.77
2023-05-13T10:06:18.954Z,22.81
2023-05-13T10:11:23.899Z,22.90
2023-05-13T10:16:27.903Z,23.12
2023-05-13T10:21:31.602Z,23.45
2023-05-13T10:26:34.709Z,23.70
2023-05-13T10:31:38.510Z,24.04
2023-05-13T10:36:46.729Z,24.09
2023-05-13T10:41:55.744Z,24.62
2023-05-13T10:46:58.708Z,24.97
2023-05-13T10:52:06.153Z,25.03
2023-05-13T10:57:09.835Z,24.97
2023-05-13T11:02:23.673Z,24.88
2023-05-13T11:07:29.911Z,24.91
2023-05-13T11:12:32.744Z,25.16
2023-05-13T11:17:37.198Z,25.04
2023-05-13T11:22:41.836Z,24.72
2023-05-13T11:27:47.103Z,24.71
2023-05-13T11:32:49.907Z,24.73
2023-05-13T11:37:53.223Z,24.59
2023-05-13T11:42:56.771Z,24.56
2023-05-13T11:48:19.445Z,24.61
2023-05-13T11:53:22.682Z,24.51
2023-05-13T11:58:25.819Z,24.56
2023-05-13T12:03:28.697Z,25.22
2023-05-13T12:08:31.936Z,25.78
2023-05-13T12:13:35.760Z,26.35
2023-05-13T12:18:38.703Z,26.13
2023-05-13T12:23:41.676Z,26.10
2023-05-13T12:28:44.532Z,26.42
2023-05-13T12:33:49.417Z,26.72
2023-05-13T12:39:00.221Z,26.63
2023-05-13T12:44:16.375Z,26.31
2023-05-13T12:49:19.311Z,26.04
2023-05-13T12:54:22.246Z,26.29
2023-05-13T12:59:26.661Z,26.43
2023-05-13T13:04:29.888Z,26.81
2023-05-13T13:09:32.897Z,27.10
2023-05-13T13:14:35.695Z,27.36
2023-05-13T13:19:38.477Z,27.58
2023-05-13T13:24:41.556Z,27.26
2023-05-13T13:29:44.795Z,26.44
2023-05-13T13:34:47.635Z,26.11
2023-05-13T13:39:50.414Z,26.05
2023-05-13T13:44:53.322Z,26.25
2023-05-13T13:49:56.123Z,26.86
2023-05-13T13:54:59.027Z,26.86
2023-05-13T14:00:01.890Z,26.12
2023-05-13T14:05:05.230Z,24.74
2023-05-13T14:10:09.120Z,23.89
2023-05-13T14:15:12.224Z,23.50
2023-05-13T14:20:15.087Z,24.47
2023-05-13T14:25:17.932Z,26.33
2023-05-13T14:30:20.914Z,27.11
2023-05-13T14:35:23.982Z,27.56
2023-05-13T14:40:26.798Z,29.22
2023-05-13T14:45:29.751Z,30.11
2023-05-13T14:50:32.706Z,29.29
2023-05-13T14:55:35.566Z,28.12
2023-05-13T15:00:39.007Z,26.84
2023-05-13T15:05:44.022Z,25.90
2023-05-13T15:10:47.192Z,25.16
2023-05-13T15:15:50.040Z,24.42
2023-05-13T15:20:52.981Z,23.64
2023-05-13T15:25:56.196Z,22.98
2023-05-13T15:30:59.093Z,22.47
2023-05-13T15:36:02.018Z,21.95
2023-05-13T15:41:05.519Z,21.65
2023-05-13T15:46:08.672Z,21.35
2023-05-13T15:51:11.593Z,21.27
2023-05-13T15:56:14.537Z,21.43
2023-05-13T16:01:17.681Z,21.91
2023-05-13T16:06:20.775Z,22.36
2023-05-13T16:11:24.880Z,22.23
2023-05-13T16:16:27.846Z,21.97
2023-05-13T16:21:31.788Z,21.52
2023-05-13T16:26:34.873Z,21.11
2023-05-13T16:31:37.822Z,20.86
2023-05-13T16:36:40.793Z,20.66
2023-05-13T16:41:43.622Z,20.41
2023-05-13T16:46:46.426Z,20.11
2023-05-13T16:51:49.230Z,19.93
2023-05-13T16:56:52.126Z,19.82
2023-05-13T17:01:55.597Z,19.69
2023-05-13T17:06:59.266Z,19.53
2023-05-13T17:12:02.271Z,19.91
2023-05-13T17:17:05.471Z,21.48
2023-05-13T17:22:08.499Z,23.46
2023-05-13T17:27:11.521Z,24.83
2023-05-13T17:32:14.577Z,25.72
2023-05-13T17:37:17.374Z,25.40
2023-05-13T17:42:20.208Z,24.27
2023-05-13T17:47:23.028Z,23.70
2023-05-13T17:52:25.844Z,22.96
2023-05-13T17:57:28.806Z,22.06
2023-05-13T18:02:31.742Z,21.11
2023-05-13T18:07:34.879Z,20.17
2023-05-13T18:12:37.910Z,19.39
2023-05-13T18:17:41.096Z,18.65
2023-05-13T18:22:43.949Z,17.97
2023-05-13T18:27:46.830Z,17.30
2023-05-13T18:32:50.889Z,16.69
2023-05-13T18:37:54.582Z,16.04
2023-05-13T18:42:58.014Z,15.56
2023-05-13T18:48:00.906Z,15.18
2023-05-13T18:53:03.861Z,14.83
2023-05-13T18:58:06.759Z,14.50
2023-05-13T19:03:11.446Z,14.17
2023-05-13T19:08:15.085Z,13.84
2023-05-13T19:13:19.894Z,13.58
2023-05-13T19:18:22.822Z,13.42
2023-05-13T19:23:25.634Z,13.30
2023-05-13T19:28:28.605Z,13.20
2023-05-13T19:33:31.893Z,13.06
2023-05-13T19:38:35.568Z,12.91
2023-05-13T19:43:38.372Z,12.76
2023-05-13T19:48:41.241Z,12.65
2023-05-13T19:53:44.061Z,12.55
2023-05-13T19:58:46.885Z,12.43
2023-05-13T20:03:49.772Z,12.29
2023-05-13T20:08:52.640Z,12.11
2023-05-13T20:13:55.941Z,11.93
2023-05-13T20:18:58.772Z,11.77
2023-05-13T20:24:01.654Z,11.62
2023-05-13T20:29:04.560Z,11.47
2023-05-13T20:34:07.448Z,11.29
2023-05-13T20:39:10.598Z,11.09
2023-05-13T20:44:15.953Z,10.89
2023-05-13T20:49:18.941Z,10.68
2023-05-13T20:54:21.784Z,10.49
2023-05-13T20:59:24.569Z,10.33
2023-05-13T21:04:27.418Z,10.18
2023-05-13T21:09:30.242Z,10.08
2023-05-13T21:14:33.057Z,9.96
2023-05-13T21:19:35.958Z,9.82
2023-05-13T21:24:38.775Z,9.67
2023-05-13T21:29:41.575Z,9.55
2023-05-13T21:34:44.654Z,9.48
2023-05-13T21:39:47.514Z,9.45
2023-05-13T21:44:50.366Z,9.41
2023-05-13T21:49:53.164Z,9.36
2023-05-13T21:54:56.030Z,9.24
2023-05-13T21:59:58.812Z,9.10
2023-05-13T22:05:01.860Z,9.01
2023-05-13T22:10:05.010Z,8.91
2023-05-13T22:15:08.130Z,8.82
2023-05-13T22:20:11.821Z,8.73
2023-05-13T22:25:14.727Z,8.58
2023-05-13T22:30:17.793Z,8.48
2023-05-13T22:35:20.778Z,8.43
2023-05-13T22:40:23.795Z,8.38
2023-05-13T22:45:26.855Z,8.30
2023-05-13T22:50:29.692Z,8.20
2023-05-13T22:55:32.614Z,8.11
2023-05-13T23:00:35.414Z,8.04
2023-05-13T23:05:38.388Z,7.95
2023-05-13T23:10:41.181Z,7.82
2023-05-13T23:15:44.072Z,7.71
2023-05-13T23:20:53.825Z,7.63
2023-05-13T23:25:56.731Z,7.55
2023-05-13T23:30:59.627Z,7.44
2023-05-13T23:36:02.595Z,7.36
2023-05-13T23:41:05.402Z,7.33
2023-05-13T23:46:08.269Z,7.26
2023-05-13T23:51:11.058Z,7.15
2023-05-13T23:56:13.907Z,7.03
